sensor_id;sensor_type;location;lat;lon;timestamp;P1;durP1;ratioP1;P2;durP2;ratioP2
10667;SDS011;5382;42.136;24.796;2022-10-22T00:01:03;16.50;;;11.00;;
10667;SDS011;5382;42.136;24.796;2022-10-22T00:03:35;21.55;;;11.32;;
10667;SDS011;5382;42.136;24.796;2022-10-22T00:06:03;20.70;;;13.05;;
10667;SDS011;5382;42.136;24.796;2022-10-22T00:08:31;18.88;;;12.65;;
10667;SDS011;5382;42.136;24.796;2022-10-22T00:11:07;19.33;;;12.48;;
10667;SDS011;5382;42.136;24.796;2022-10-22T00:14:12;16.98;;;11.43;;
10667;SDS011;5382;42.136;24.796;2022-10-22T00:16:41;19.88;;;12.30;;
10667;SDS011;5382;42.136;24.796;2022-10-22T00:19:08;17.77;;;12.00;;
10667;SDS011;5382;42.136;24.796;2022-10-22T00:21:54;20.85;;;11.55;;
10667;SDS011;5382;42.136;24.796;2022-10-22T00:24:22;18.63;;;12.38;;
10667;SDS011;5382;42.136;24.796;2022-10-22T00:26:51;18.58;;;12.73;;
10667;SDS011;5382;42.136;24.796;2022-10-22T00:29:20;18.63;;;12.98;;
10667;SDS011;5382;42.136;24.796;2022-10-22T00:31:49;22.10;;;12.82;;
10667;SDS011;5382;42.136;24.796;2022-10-22T00:34:19;20.23;;;13.40;;
10667;SDS011;5382;42.136;24.796;2022-10-22T00:36:48;20.23;;;13.48;;
10667;SDS011;5382;42.136;24.796;2022-10-22T00:39:16;20.42;;;13.20;;
10667;SDS011;5382;42.136;24.796;2022-10-22T00:41:46;20.02;;;12.35;;
10667;SDS011;5382;42.136;24.796;2022-10-22T00:47:20;20.60;;;12.90;;
10667;SDS011;5382;42.136;24.796;2022-10-22T00:49:49;20.15;;;12.98;;
10667;SDS011;5382;42.136;24.796;2022-10-22T00:52:20;16.50;;;12.38;;
10667;SDS011;5382;42.136;24.796;2022-10-22T00:54:49;22.50;;;13.57;;
10667;SDS011;5382;42.136;24.796;2022-10-22T00:57:18;20.58;;;12.48;;
10667;SDS011;5382;42.136;24.796;2022-10-22T00:59:46;20.75;;;13.25;;
10667;SDS011;5382;42.136;24.796;2022-10-22T01:02:15;27.15;;;14.18;;
10667;SDS011;5382;42.136;24.796;2022-10-22T01:04:45;22.83;;;15.13;;
10667;SDS011;5382;42.136;24.796;2022-10-22T01:07:15;23.98;;;14.68;;
10667;SDS011;5382;42.136;24.796;2022-10-22T01:09:45;23.92;;;15.95;;
10667;SDS011;5382;42.136;24.796;2022-10-22T01:12:27;23.55;;;15.18;;
10667;SDS011;5382;42.136;24.796;2022-10-22T01:15:07;27.80;;;21.65;;
10667;SDS011;5382;42.136;24.796;2022-10-22T01:17:43;28.92;;;21.70;;
10667;SDS011;5382;42.136;24.796;2022-10-22T01:20:21;28.83;;;21.52;;
10667;SDS011;5382;42.136;24.796;2022-10-22T01:23:09;33.00;;;21.75;;
10667;SDS011;5382;42.136;24.796;2022-10-22T01:25:49;32.25;;;21.98;;
10667;SDS011;5382;42.136;24.796;2022-10-22T01:31:16;23.73;;;14.70;;
10667;SDS011;5382;42.136;24.796;2022-10-22T01:33:47;26.10;;;14.82;;
10667;SDS011;5382;42.136;24.796;2022-10-22T01:36:17;27.38;;;15.30;;
10667;SDS011;5382;42.136;24.796;2022-10-22T01:38:45;19.65;;;14.27;;
10667;SDS011;5382;42.136;24.796;2022-10-22T01:41:15;21.95;;;14.45;;
10667;SDS011;5382;42.136;24.796;2022-10-22T01:43:42;22.00;;;14.93;;
10667;SDS011;5382;42.136;24.796;2022-10-22T01:46:09;43.25;;;26.13;;
10667;SDS011;5382;42.136;24.796;2022-10-22T01:48:43;28.63;;;16.52;;
10667;SDS011;5382;42.136;24.796;2022-10-22T01:51:25;24.98;;;14.63;;
10667;SDS011;5382;42.136;24.796;2022-10-22T01:54:05;23.73;;;15.07;;
10667;SDS011;5382;42.136;24.796;2022-10-22T01:56:48;27.02;;;15.57;;
10667;SDS011;5382;42.136;24.796;2022-10-22T01:59:27;22.98;;;14.40;;
10667;SDS011;5382;42.136;24.796;2022-10-22T02:02:02;25.98;;;15.27;;
10667;SDS011;5382;42.136;24.796;2022-10-22T02:04:34;25.33;;;13.85;;
10667;SDS011;5382;42.136;24.796;2022-10-22T02:07:07;21.00;;;15.00;;
10667;SDS011;5382;42.136;24.796;2022-10-22T02:09:36;25.05;;;14.75;;
10667;SDS011;5382;42.136;24.796;2022-10-22T02:12:09;25.95;;;16.00;;
10667;SDS011;5382;42.136;24.796;2022-10-22T02:14:40;16.65;;;12.27;;
10667;SDS011;5382;42.136;24.796;2022-10-22T02:17:09;22.38;;;15.32;;
10667;SDS011;5382;42.136;24.796;2022-10-22T02:19:43;19.40;;;13.32;;
10667;SDS011;5382;42.136;24.796;2022-10-22T02:22:18;21.20;;;14.63;;
10667;SDS011;5382;42.136;24.796;2022-10-22T02:24:46;23.92;;;15.85;;
10667;SDS011;5382;42.136;24.796;2022-10-22T02:27:16;25.33;;;15.73;;
10667;SDS011;5382;42.136;24.796;2022-10-22T02:29:49;27.30;;;15.80;;
10667;SDS011;5382;42.136;24.796;2022-10-22T02:32:22;26.30;;;16.77;;
10667;SDS011;5382;42.136;24.796;2022-10-22T02:34:57;24.77;;;16.17;;
10667;SDS011;5382;42.136;24.796;2022-10-22T02:37:26;25.77;;;17.13;;
10667;SDS011;5382;42.136;24.796;2022-10-22T02:39:54;29.85;;;16.83;;
10667;SDS011;5382;42.136;24.796;2022-10-22T02:42:22;32.90;;;18.42;;
10667;SDS011;5382;42.136;24.796;2022-10-22T02:44:50;33.65;;;18.58;;
10667;SDS011;5382;42.136;24.796;2022-10-22T02:47:17;27.23;;;18.70;;
10667;SDS011;5382;42.136;24.796;2022-10-22T02:49:43;31.25;;;18.75;;
10667;SDS011;5382;42.136;24.796;2022-10-22T02:52:12;36.17;;;19.38;;
10667;SDS011;5382;42.136;24.796;2022-10-22T02:54:39;33.25;;;19.80;;
10667;SDS011;5382;42.136;24.796;2022-10-22T02:57:06;28.00;;;18.58;;
10667;SDS011;5382;42.136;24.796;2022-10-22T02:59:33;26.75;;;18.13;;
10667;SDS011;5382;42.136;24.796;2022-10-22T03:02:01;29.27;;;19.48;;
10667;SDS011;5382;42.136;24.796;2022-10-22T03:04:28;29.55;;;19.27;;
10667;SDS011;5382;42.136;24.796;2022-10-22T03:06:55;29.95;;;19.50;;
10667;SDS011;5382;42.136;24.796;2022-10-22T03:09:24;29.90;;;19.90;;
10667;SDS011;5382;42.136;24.796;2022-10-22T03:11:53;33.03;;;19.25;;
10667;SDS011;5382;42.136;24.796;2022-10-22T03:14:20;31.50;;;20.33;;
10667;SDS011;5382;42.136;24.796;2022-10-22T03:16:47;30.63;;;19.67;;
10667;SDS011;5382;42.136;24.796;2022-10-22T03:19:20;29.80;;;20.38;;
10667;SDS011;5382;42.136;24.796;2022-10-22T03:21:48;35.10;;;21.63;;
10667;SDS011;5382;42.136;24.796;2022-10-22T03:24:19;35.28;;;20.65;;
10667;SDS011;5382;42.136;24.796;2022-10-22T03:26:56;29.73;;;20.10;;
10667;SDS011;5382;42.136;24.796;2022-10-22T03:29:24;32.10;;;20.23;;
10667;SDS011;5382;42.136;24.796;2022-10-22T03:31:53;35.40;;;21.00;;
10667;SDS011;5382;42.136;24.796;2022-10-22T03:34:20;31.98;;;21.27;;
10667;SDS011;5382;42.136;24.796;2022-10-22T03:36:47;29.83;;;19.27;;
10667;SDS011;5382;42.136;24.796;2022-10-22T03:39:15;31.70;;;19.95;;
10667;SDS011;5382;42.136;24.796;2022-10-22T03:41:44;32.33;;;20.30;;
10667;SDS011;5382;42.136;24.796;2022-10-22T03:44:13;35.72;;;20.13;;
10667;SDS011;5382;42.136;24.796;2022-10-22T03:46:42;35.85;;;20.02;;
10667;SDS011;5382;42.136;24.796;2022-10-22T03:49:10;31.23;;;18.98;;
10667;SDS011;5382;42.136;24.796;2022-10-22T03:51:38;32.92;;;18.55;;
10667;SDS011;5382;42.136;24.796;2022-10-22T03:54:05;29.95;;;19.02;;
10667;SDS011;5382;42.136;24.796;2022-10-22T03:56:33;33.85;;;18.83;;
10667;SDS011;5382;42.136;24.796;2022-10-22T03:59:00;25.08;;;17.70;;
10667;SDS011;5382;42.136;24.796;2022-10-22T04:01:31;29.27;;;19.23;;
10667;SDS011;5382;42.136;24.796;2022-10-22T04:03:59;28.20;;;18.52;;
10667;SDS011;5382;42.136;24.796;2022-10-22T04:06:27;29.33;;;18.55;;
10667;SDS011;5382;42.136;24.796;2022-10-22T04:08:55;32.78;;;18.15;;
10667;SDS011;5382;42.136;24.796;2022-10-22T04:11:25;30.50;;;18.05;;
10667;SDS011;5382;42.136;24.796;2022-10-22T04:13:52;27.85;;;17.23;;
10667;SDS011;5382;42.136;24.796;2022-10-22T04:16:19;31.38;;;17.95;;
10667;SDS011;5382;42.136;24.796;2022-10-22T04:18:50;24.85;;;17.60;;
10667;SDS011;5382;42.136;24.796;2022-10-22T04:21:18;26.20;;;16.67;;
10667;SDS011;5382;42.136;24.796;2022-10-22T04:23:45;23.05;;;14.68;;
10667;SDS011;5382;42.136;24.796;2022-10-22T04:26:13;20.02;;;14.25;;
10667;SDS011;5382;42.136;24.796;2022-10-22T04:28:41;24.60;;;15.32;;
10667;SDS011;5382;42.136;24.796;2022-10-22T04:31:10;25.40;;;16.92;;
10667;SDS011;5382;42.136;24.796;2022-10-22T04:33:38;27.63;;;17.25;;
10667;SDS011;5382;42.136;24.796;2022-10-22T04:36:08;27.02;;;16.90;;
10667;SDS011;5382;42.136;24.796;2022-10-22T04:38:37;24.80;;;17.83;;
10667;SDS011;5382;42.136;24.796;2022-10-22T04:41:08;30.80;;;17.38;;
10667;SDS011;5382;42.136;24.796;2022-10-22T04:43:37;22.80;;;16.95;;
10667;SDS011;5382;42.136;24.796;2022-10-22T04:46:04;34.40;;;18.13;;
10667;SDS011;5382;42.136;24.796;2022-10-22T04:48:33;49.20;;;19.77;;
10667;SDS011;5382;42.136;24.796;2022-10-22T04:51:01;26.48;;;16.63;;
10667;SDS011;5382;42.136;24.796;2022-10-22T04:53:37;28.38;;;17.98;;
10667;SDS011;5382;42.136;24.796;2022-10-22T04:56:05;26.00;;;16.38;;
10667;SDS011;5382;42.136;24.796;2022-10-22T04:58:34;26.17;;;17.35;;
10667;SDS011;5382;42.136;24.796;2022-10-22T05:01:08;24.38;;;15.45;;
10667;SDS011;5382;42.136;24.796;2022-10-22T05:03:37;26.45;;;16.05;;
10667;SDS011;5382;42.136;24.796;2022-10-22T05:06:05;27.45;;;16.75;;
10667;SDS011;5382;42.136;24.796;2022-10-22T05:08:36;30.17;;;17.30;;
10667;SDS011;5382;42.136;24.796;2022-10-22T05:11:15;27.02;;;15.93;;
10667;SDS011;5382;42.136;24.796;2022-10-22T05:13:44;29.42;;;17.00;;
10667;SDS011;5382;42.136;24.796;2022-10-22T05:16:12;25.92;;;17.52;;
10667;SDS011;5382;42.136;24.796;2022-10-22T05:18:39;28.05;;;17.60;;
10667;SDS011;5382;42.136;24.796;2022-10-22T05:21:09;27.85;;;16.35;;
10667;SDS011;5382;42.136;24.796;2022-10-22T05:23:39;28.60;;;16.85;;
10667;SDS011;5382;42.136;24.796;2022-10-22T05:26:07;26.98;;;16.50;;
10667;SDS011;5382;42.136;24.796;2022-10-22T05:28:37;32.38;;;18.90;;
10667;SDS011;5382;42.136;24.796;2022-10-22T05:31:11;38.42;;;20.67;;
10667;SDS011;5382;42.136;24.796;2022-10-22T05:33:39;30.25;;;16.45;;
10667;SDS011;5382;42.136;24.796;2022-10-22T05:36:06;36.17;;;19.00;;
10667;SDS011;5382;42.136;24.796;2022-10-22T05:38:35;26.98;;;16.98;;
10667;SDS011;5382;42.136;24.796;2022-10-22T05:41:09;25.45;;;16.30;;
10667;SDS011;5382;42.136;24.796;2022-10-22T05:43:38;28.98;;;17.20;;
10667;SDS011;5382;42.136;24.796;2022-10-22T05:46:06;33.08;;;18.75;;
10667;SDS011;5382;42.136;24.796;2022-10-22T05:48:35;25.75;;;16.83;;
10667;SDS011;5382;42.136;24.796;2022-10-22T05:51:02;28.77;;;17.05;;
10667;SDS011;5382;42.136;24.796;2022-10-22T05:53:30;28.35;;;16.83;;
10667;SDS011;5382;42.136;24.796;2022-10-22T05:56:00;28.33;;;16.23;;
10667;SDS011;5382;42.136;24.796;2022-10-22T05:58:29;25.67;;;16.45;;
10667;SDS011;5382;42.136;24.796;2022-10-22T06:01:00;22.52;;;16.35;;
10667;SDS011;5382;42.136;24.796;2022-10-22T06:03:27;29.27;;;17.63;;
10667;SDS011;5382;42.136;24.796;2022-10-22T06:05:56;30.35;;;23.98;;
10667;SDS011;5382;42.136;24.796;2022-10-22T06:08:25;25.00;;;16.70;;
10667;SDS011;5382;42.136;24.796;2022-10-22T06:10:52;90.57;;;29.17;;
10667;SDS011;5382;42.136;24.796;2022-10-22T06:13:19;25.83;;;16.67;;
10667;SDS011;5382;42.136;24.796;2022-10-22T06:15:48;24.08;;;16.30;;
10667;SDS011;5382;42.136;24.796;2022-10-22T06:18:16;29.67;;;15.55;;
10667;SDS011;5382;42.136;24.796;2022-10-22T06:20:44;29.25;;;17.00;;
10667;SDS011;5382;42.136;24.796;2022-10-22T06:23:11;22.75;;;15.38;;
10667;SDS011;5382;42.136;24.796;2022-10-22T06:25:38;31.60;;;16.40;;
10667;SDS011;5382;42.136;24.796;2022-10-22T06:28:05;26.77;;;15.27;;
10667;SDS011;5382;42.136;24.796;2022-10-22T06:30:32;30.73;;;16.52;;
10667;SDS011;5382;42.136;24.796;2022-10-22T06:33:00;26.67;;;16.95;;
10667;SDS011;5382;42.136;24.796;2022-10-22T06:35:27;25.30;;;16.20;;
10667;SDS011;5382;42.136;24.796;2022-10-22T06:37:54;32.38;;;17.17;;
10667;SDS011;5382;42.136;24.796;2022-10-22T06:40:24;29.67;;;17.77;;
10667;SDS011;5382;42.136;24.796;2022-10-22T06:42:53;35.05;;;18.65;;
10667;SDS011;5382;42.136;24.796;2022-10-22T06:45:20;25.85;;;17.85;;
10667;SDS011;5382;42.136;24.796;2022-10-22T06:47:47;30.65;;;17.90;;
10667;SDS011;5382;42.136;24.796;2022-10-22T06:50:16;23.98;;;14.45;;
10667;SDS011;5382;42.136;24.796;2022-10-22T06:52:44;30.48;;;16.75;;
10667;SDS011;5382;42.136;24.796;2022-10-22T06:55:11;26.10;;;15.50;;
10667;SDS011;5382;42.136;24.796;2022-10-22T06:57:38;22.17;;;15.73;;
10667;SDS011;5382;42.136;24.796;2022-10-22T07:00:05;27.52;;;16.33;;
10667;SDS011;5382;42.136;24.796;2022-10-22T07:02:33;23.48;;;14.90;;
10667;SDS011;5382;42.136;24.796;2022-10-22T07:05:02;19.73;;;14.63;;
10667;SDS011;5382;42.136;24.796;2022-10-22T07:07:31;24.63;;;13.40;;
10667;SDS011;5382;42.136;24.796;2022-10-22T07:09:58;21.23;;;14.60;;
10667;SDS011;5382;42.136;24.796;2022-10-22T07:12:25;22.98;;;13.35;;
10667;SDS011;5382;42.136;24.796;2022-10-22T07:14:53;19.27;;;12.68;;
10667;SDS011;5382;42.136;24.796;2022-10-22T07:17:21;21.17;;;13.32;;
10667;SDS011;5382;42.136;24.796;2022-10-22T07:19:48;17.10;;;12.10;;
10667;SDS011;5382;42.136;24.796;2022-10-22T07:22:15;18.75;;;11.38;;
10667;SDS011;5382;42.136;24.796;2022-10-22T07:24:44;23.20;;;12.20;;
10667;SDS011;5382;42.136;24.796;2022-10-22T07:27:11;18.00;;;12.25;;
10667;SDS011;5382;42.136;24.796;2022-10-22T07:29:38;16.60;;;10.95;;
10667;SDS011;5382;42.136;24.796;2022-10-22T07:32:06;20.92;;;12.82;;
10667;SDS011;5382;42.136;24.796;2022-10-22T07:34:33;17.40;;;10.23;;
10667;SDS011;5382;42.136;24.796;2022-10-22T07:37:00;22.25;;;10.60;;
10667;SDS011;5382;42.136;24.796;2022-10-22T07:39:27;19.80;;;10.98;;
10667;SDS011;5382;42.136;24.796;2022-10-22T07:41:56;19.30;;;10.75;;
10667;SDS011;5382;42.136;24.796;2022-10-22T07:44:23;16.98;;;10.68;;
10667;SDS011;5382;42.136;24.796;2022-10-22T07:46:51;15.98;;;10.10;;
10667;SDS011;5382;42.136;24.796;2022-10-22T07:49:17;12.55;;;9.60;;
10667;SDS011;5382;42.136;24.796;2022-10-22T07:51:45;15.75;;;10.60;;
10667;SDS011;5382;42.136;24.796;2022-10-22T07:54:12;21.35;;;10.60;;
10667;SDS011;5382;42.136;24.796;2022-10-22T07:56:39;20.55;;;11.05;;
10667;SDS011;5382;42.136;24.796;2022-10-22T07:59:07;20.45;;;11.27;;
10667;SDS011;5382;42.136;24.796;2022-10-22T08:01:34;17.70;;;9.98;;
10667;SDS011;5382;42.136;24.796;2022-10-22T08:04:01;17.67;;;11.32;;
10667;SDS011;5382;42.136;24.796;2022-10-22T08:06:28;14.02;;;10.73;;
10667;SDS011;5382;42.136;24.796;2022-10-22T08:08:56;11.70;;;8.70;;
10667;SDS011;5382;42.136;24.796;2022-10-22T08:11:23;14.65;;;11.25;;
10667;SDS011;5382;42.136;24.796;2022-10-22T08:13:51;20.83;;;9.38;;
10667;SDS011;5382;42.136;24.796;2022-10-22T08:16:20;20.33;;;11.27;;
10667;SDS011;5382;42.136;24.796;2022-10-22T08:18:46;12.18;;;8.57;;
10667;SDS011;5382;42.136;24.796;2022-10-22T08:21:14;14.77;;;10.80;;
10667;SDS011;5382;42.136;24.796;2022-10-22T08:23:41;12.93;;;10.98;;
10667;SDS011;5382;42.136;24.796;2022-10-22T08:26:08;11.15;;;8.90;;
10667;SDS011;5382;42.136;24.796;2022-10-22T08:28:36;14.30;;;9.27;;
10667;SDS011;5382;42.136;24.796;2022-10-22T08:31:06;13.68;;;10.15;;
10667;SDS011;5382;42.136;24.796;2022-10-22T08:33:35;11.18;;;9.98;;
10667;SDS011;5382;42.136;24.796;2022-10-22T08:36:04;13.48;;;10.50;;
10667;SDS011;5382;42.136;24.796;2022-10-22T08:38:32;16.10;;;11.02;;
10667;SDS011;5382;42.136;24.796;2022-10-22T08:41:02;10.32;;;7.78;;
10667;SDS011;5382;42.136;24.796;2022-10-22T08:43:46;13.18;;;9.73;;
10667;SDS011;5382;42.136;24.796;2022-10-22T08:46:30;14.32;;;8.27;;
10667;SDS011;5382;42.136;24.796;2022-10-22T08:49:07;11.18;;;7.65;;
10667;SDS011;5382;42.136;24.796;2022-10-22T08:51:41;12.25;;;7.50;;
10667;SDS011;5382;42.136;24.796;2022-10-22T08:54:26;9.77;;;7.47;;
10667;SDS011;5382;42.136;24.796;2022-10-22T08:57:02;14.50;;;7.28;;
10667;SDS011;5382;42.136;24.796;2022-10-22T08:59:45;12.13;;;7.72;;
10667;SDS011;5382;42.136;24.796;2022-10-22T09:02:21;9.77;;;7.07;;
10667;SDS011;5382;42.136;24.796;2022-10-22T09:05:03;14.32;;;7.40;;
10667;SDS011;5382;42.136;24.796;2022-10-22T09:07:39;13.70;;;7.63;;
10667;SDS011;5382;42.136;24.796;2022-10-22T09:10:14;9.77;;;7.03;;
10667;SDS011;5382;42.136;24.796;2022-10-22T09:12:44;10.20;;;7.22;;
10667;SDS011;5382;42.136;24.796;2022-10-22T09:15:13;11.43;;;7.07;;
10667;SDS011;5382;42.136;24.796;2022-10-22T09:17:44;11.52;;;7.40;;
10667;SDS011;5382;42.136;24.796;2022-10-22T09:20:23;11.40;;;7.43;;
10667;SDS011;5382;42.136;24.796;2022-10-22T09:22:58;12.35;;;7.55;;
10667;SDS011;5382;42.136;24.796;2022-10-22T09:25:39;8.60;;;6.47;;
10667;SDS011;5382;42.136;24.796;2022-10-22T09:28:09;11.52;;;7.18;;
10667;SDS011;5382;42.136;24.796;2022-10-22T09:30:37;10.75;;;6.72;;
10667;SDS011;5382;42.136;24.796;2022-10-22T09:33:11;14.02;;;6.88;;
10667;SDS011;5382;42.136;24.796;2022-10-22T09:35:45;8.77;;;6.70;;
10667;SDS011;5382;42.136;24.796;2022-10-22T09:38:18;7.80;;;6.50;;
10667;SDS011;5382;42.136;24.796;2022-10-22T09:40:48;6.60;;;6.00;;
10667;SDS011;5382;42.136;24.796;2022-10-22T09:43:17;7.43;;;6.10;;
10667;SDS011;5382;42.136;24.796;2022-10-22T09:45:45;9.07;;;6.70;;
10667;SDS011;5382;42.136;24.796;2022-10-22T09:48:17;12.63;;;7.13;;
10667;SDS011;5382;42.136;24.796;2022-10-22T09:50:56;11.68;;;6.88;;
10667;SDS011;5382;42.136;24.796;2022-10-22T09:53:28;8.55;;;7.13;;
10667;SDS011;5382;42.136;24.796;2022-10-22T09:55:58;9.60;;;6.70;;
10667;SDS011;5382;42.136;24.796;2022-10-22T09:58:27;9.40;;;6.32;;
10667;SDS011;5382;42.136;24.796;2022-10-22T10:00:56;9.82;;;7.28;;
10667;SDS011;5382;42.136;24.796;2022-10-22T10:03:26;8.98;;;6.68;;
10667;SDS011;5382;42.136;24.796;2022-10-22T10:05:58;11.70;;;6.80;;
10667;SDS011;5382;42.136;24.796;2022-10-22T10:08:26;10.27;;;7.35;;
10667;SDS011;5382;42.136;24.796;2022-10-22T10:10:56;10.85;;;6.78;;
10667;SDS011;5382;42.136;24.796;2022-10-22T10:13:29;9.68;;;7.13;;
10667;SDS011;5382;42.136;24.796;2022-10-22T10:16:09;14.88;;;6.68;;
10667;SDS011;5382;42.136;24.796;2022-10-22T10:18:45;8.80;;;6.13;;
10667;SDS011;5382;42.136;24.796;2022-10-22T10:21:29;9.38;;;6.50;;
10667;SDS011;5382;42.136;24.796;2022-10-22T10:24:07;12.82;;;7.30;;
10667;SDS011;5382;42.136;24.796;2022-10-22T10:26:44;10.93;;;7.40;;
10667;SDS011;5382;42.136;24.796;2022-10-22T10:29:23;13.63;;;8.57;;
10667;SDS011;5382;42.136;24.796;2022-10-22T10:32:11;11.35;;;6.53;;
10667;SDS011;5382;42.136;24.796;2022-10-22T10:34:52;10.50;;;6.70;;
10667;SDS011;5382;42.136;24.796;2022-10-22T10:37:29;9.10;;;6.90;;
10667;SDS011;5382;42.136;24.796;2022-10-22T10:40:02;11.25;;;7.05;;
10667;SDS011;5382;42.136;24.796;2022-10-22T10:42:45;8.77;;;6.38;;
10667;SDS011;5382;42.136;24.796;2022-10-22T10:45:21;10.07;;;5.97;;
10667;SDS011;5382;42.136;24.796;2022-10-22T10:50:52;11.70;;;6.40;;
10667;SDS011;5382;42.136;24.796;2022-10-22T10:53:35;7.78;;;5.50;;
10667;SDS011;5382;42.136;24.796;2022-10-22T10:56:21;9.38;;;5.70;;
10667;SDS011;5382;42.136;24.796;2022-10-22T10:59:00;9.50;;;6.30;;
10667;SDS011;5382;42.136;24.796;2022-10-22T11:01:38;11.38;;;5.85;;
10667;SDS011;5382;42.136;24.796;2022-10-22T11:04:28;9.45;;;5.90;;
10667;SDS011;5382;42.136;24.796;2022-10-22T11:07:24;9.00;;;5.10;;
10667;SDS011;5382;42.136;24.796;2022-10-22T11:10:23;6.93;;;5.22;;
10667;SDS011;5382;42.136;24.796;2022-10-22T11:12:55;14.30;;;5.63;;
10667;SDS011;5382;42.136;24.796;2022-10-22T11:15:28;12.27;;;5.45;;
10667;SDS011;5382;42.136;24.796;2022-10-22T11:18:01;12.48;;;5.57;;
10667;SDS011;5382;42.136;24.796;2022-10-22T11:20:37;16.45;;;6.22;;
10667;SDS011;5382;42.136;24.796;2022-10-22T11:23:13;7.57;;;5.32;;
10667;SDS011;5382;42.136;24.796;2022-10-22T11:25:54;8.02;;;5.47;;
10667;SDS011;5382;42.136;24.796;2022-10-22T11:28:23;10.45;;;5.93;;
10667;SDS011;5382;42.136;24.796;2022-10-22T11:30:57;8.95;;;5.07;;
10667;SDS011;5382;42.136;24.796;2022-10-22T11:33:31;7.63;;;5.97;;
10667;SDS011;5382;42.136;24.796;2022-10-22T11:36:07;8.90;;;5.30;;
10667;SDS011;5382;42.136;24.796;2022-10-22T11:38:36;10.95;;;5.65;;
10667;SDS011;5382;42.136;24.796;2022-10-22T11:41:07;7.55;;;6.07;;
10667;SDS011;5382;42.136;24.796;2022-10-22T11:43:51;9.32;;;5.68;;
10667;SDS011;5382;42.136;24.796;2022-10-22T11:46:33;7.82;;;5.78;;
10667;SDS011;5382;42.136;24.796;2022-10-22T11:49:17;7.18;;;5.78;;
10667;SDS011;5382;42.136;24.796;2022-10-22T11:51:50;9.98;;;5.82;;
10667;SDS011;5382;42.136;24.796;2022-10-22T11:54:38;9.38;;;6.18;;
10667;SDS011;5382;42.136;24.796;2022-10-22T11:57:19;7.43;;;5.60;;
10667;SDS011;5382;42.136;24.796;2022-10-22T11:59:52;10.52;;;6.15;;
10667;SDS011;5382;42.136;24.796;2022-10-22T12:11:03;9.00;;;5.72;;
10667;SDS011;5382;42.136;24.796;2022-10-22T12:13:52;7.07;;;5.65;;
10667;SDS011;5382;42.136;24.796;2022-10-22T12:16:34;7.93;;;5.80;;
10667;SDS011;5382;42.136;24.796;2022-10-22T12:19:11;7.80;;;5.65;;
10667;SDS011;5382;42.136;24.796;2022-10-22T12:21:42;9.25;;;5.85;;
10667;SDS011;5382;42.136;24.796;2022-10-22T12:24:13;7.90;;;6.15;;
10667;SDS011;5382;42.136;24.796;2022-10-22T12:26:42;7.80;;;5.47;;
10667;SDS011;5382;42.136;24.796;2022-10-22T12:29:15;12.77;;;6.00;;
10667;SDS011;5382;42.136;24.796;2022-10-22T12:31:43;9.93;;;5.70;;
10667;SDS011;5382;42.136;24.796;2022-10-22T12:34:12;11.48;;;5.82;;
10667;SDS011;5382;42.136;24.796;2022-10-22T12:36:41;11.75;;;6.05;;
10667;SDS011;5382;42.136;24.796;2022-10-22T12:39:10;13.95;;;6.70;;
10667;SDS011;5382;42.136;24.796;2022-10-22T12:41:39;12.65;;;6.30;;
10667;SDS011;5382;42.136;24.796;2022-10-22T12:44:06;10.07;;;6.38;;
10667;SDS011;5382;42.136;24.796;2022-10-22T12:46:39;8.48;;;6.45;;
10667;SDS011;5382;42.136;24.796;2022-10-22T12:49:14;11.82;;;5.88;;
10667;SDS011;5382;42.136;24.796;2022-10-22T12:51:44;8.57;;;5.47;;
10667;SDS011;5382;42.136;24.796;2022-10-22T12:54:16;13.95;;;6.35;;
10667;SDS011;5382;42.136;24.796;2022-10-22T12:56:48;10.90;;;6.57;;
10667;SDS011;5382;42.136;24.796;2022-10-22T12:59:17;9.60;;;6.22;;
10667;SDS011;5382;42.136;24.796;2022-10-22T13:01:49;8.25;;;5.78;;
10667;SDS011;5382;42.136;24.796;2022-10-22T13:04:21;6.15;;;4.95;;
10667;SDS011;5382;42.136;24.796;2022-10-22T13:07:05;9.35;;;5.63;;
10667;SDS011;5382;42.136;24.796;2022-10-22T13:09:44;7.60;;;5.70;;
10667;SDS011;5382;42.136;24.796;2022-10-22T13:12:12;9.55;;;5.45;;
10667;SDS011;5382;42.136;24.796;2022-10-22T13:14:43;5.15;;;4.63;;
10667;SDS011;5382;42.136;24.796;2022-10-22T13:17:13;12.18;;;5.32;;
10667;SDS011;5382;42.136;24.796;2022-10-22T13:19:43;8.48;;;5.70;;
10667;SDS011;5382;42.136;24.796;2022-10-22T13:22:25;11.43;;;5.90;;
10667;SDS011;5382;42.136;24.796;2022-10-22T13:24:55;6.55;;;5.72;;
10667;SDS011;5382;42.136;24.796;2022-10-22T13:27:24;7.53;;;5.75;;
10667;SDS011;5382;42.136;24.796;2022-10-22T13:29:51;9.00;;;5.70;;
10667;SDS011;5382;42.136;24.796;2022-10-22T13:32:27;9.27;;;6.00;;
10667;SDS011;5382;42.136;24.796;2022-10-22T13:34:56;7.28;;;5.30;;
10667;SDS011;5382;42.136;24.796;2022-10-22T13:37:24;9.90;;;4.97;;
10667;SDS011;5382;42.136;24.796;2022-10-22T13:39:52;7.07;;;5.25;;
10667;SDS011;5382;42.136;24.796;2022-10-22T13:42:18;8.77;;;5.32;;
10667;SDS011;5382;42.136;24.796;2022-10-22T13:44:45;7.22;;;5.22;;
10667;SDS011;5382;42.136;24.796;2022-10-22T13:47:16;13.10;;;5.93;;
10667;SDS011;5382;42.136;24.796;2022-10-22T13:49:52;10.90;;;5.45;;
10667;SDS011;5382;42.136;24.796;2022-10-22T13:52:28;7.70;;;5.75;;
10667;SDS011;5382;42.136;24.796;2022-10-22T13:55:01;8.43;;;5.22;;
10667;SDS011;5382;42.136;24.796;2022-10-22T13:57:38;6.53;;;5.30;;
10667;SDS011;5382;42.136;24.796;2022-10-22T14:00:05;12.73;;;5.40;;
10667;SDS011;5382;42.136;24.796;2022-10-22T14:02:34;9.57;;;5.90;;
10667;SDS011;5382;42.136;24.796;2022-10-22T14:05:03;8.48;;;4.75;;
10667;SDS011;5382;42.136;24.796;2022-10-22T14:07:33;78.35;;;10.75;;
10667;SDS011;5382;42.136;24.796;2022-10-22T14:10:00;11.50;;;7.25;;
10667;SDS011;5382;42.136;24.796;2022-10-22T14:12:27;10.35;;;5.93;;
10667;SDS011;5382;42.136;24.796;2022-10-22T14:14:54;7.22;;;5.35;;
10667;SDS011;5382;42.136;24.796;2022-10-22T14:17:20;10.15;;;6.63;;
10667;SDS011;5382;42.136;24.796;2022-10-22T14:19:47;11.18;;;6.55;;
10667;SDS011;5382;42.136;24.796;2022-10-22T14:22:17;8.93;;;5.60;;
10667;SDS011;5382;42.136;24.796;2022-10-22T14:24:45;7.80;;;6.10;;
10667;SDS011;5382;42.136;24.796;2022-10-22T14:27:12;8.18;;;6.00;;
10667;SDS011;5382;42.136;24.796;2022-10-22T14:29:40;7.97;;;5.55;;
10667;SDS011;5382;42.136;24.796;2022-10-22T14:32:14;10.68;;;6.15;;
10667;SDS011;5382;42.136;24.796;2022-10-22T14:34:44;9.43;;;5.47;;
10667;SDS011;5382;42.136;24.796;2022-10-22T14:37:17;10.82;;;5.72;;
10667;SDS011;5382;42.136;24.796;2022-10-22T14:39:47;8.25;;;5.72;;
10667;SDS011;5382;42.136;24.796;2022-10-22T14:42:24;9.27;;;6.13;;
10667;SDS011;5382;42.136;24.796;2022-10-22T14:44:51;9.45;;;6.47;;
10667;SDS011;5382;42.136;24.796;2022-10-22T14:47:18;8.27;;;5.75;;
10667;SDS011;5382;42.136;24.796;2022-10-22T14:49:45;9.75;;;6.13;;
10667;SDS011;5382;42.136;24.796;2022-10-22T14:52:12;10.43;;;6.70;;
10667;SDS011;5382;42.136;24.796;2022-10-22T14:54:40;11.45;;;6.65;;
10667;SDS011;5382;42.136;24.796;2022-10-22T14:57:07;9.15;;;6.40;;
10667;SDS011;5382;42.136;24.796;2022-10-22T14:59:35;9.80;;;5.72;;
10667;SDS011;5382;42.136;24.796;2022-10-22T15:02:02;9.02;;;6.28;;
10667;SDS011;5382;42.136;24.796;2022-10-22T15:04:29;7.25;;;5.90;;
10667;SDS011;5382;42.136;24.796;2022-10-22T15:06:55;12.25;;;6.60;;
10667;SDS011;5382;42.136;24.796;2022-10-22T15:09:23;13.70;;;6.38;;
10667;SDS011;5382;42.136;24.796;2022-10-22T15:11:51;10.95;;;6.82;;